Time;durP1;ratioP1;P1;durP2;ratioP2;P2;SDS_P1;SDS_P2;PMS_P1;PMS_P2;Temp;Humidity;BMP_temperature;BMP_pressure;BME280_temperature;BME280_humidity;BME280_pressure;Samples;Min_cycle;Max_cycle;Signal;HPM_P1;HPM_P2
2022/07/04 00:02:18;;;;;;;;;5.00;4.00;;;;;18.41;58.08;101648.16;5052695;28;45303;-75
2022/07/04 00:04:43;;;;;;;;;3.67;3.00;;;;;18.38;58.55;101643.19;5059764;28;45367;-75
2022/07/04 00:07:08;;;;;;;;;2.00;2.00;;;;;18.36;58.43;101649.81;5059947;28;46604;-75
2022/07/04 00:09:34;;;;;;;;;2.00;1.33;;;;;18.28;59.05;101653.53;5040891;28;47154;-75
2022/07/04 00:11:59;;;;;;;;;2.00;2.00;;;;;18.26;58.92;101659.09;5041898;28;45384;-75
2022/07/04 00:14:24;;;;;;;;;2.00;2.00;;;;;18.24;58.87;101661.19;5054161;28;46092;-75
2022/07/04 00:16:50;;;;;;;;;2.33;2.33;;;;;18.21;58.79;101660.75;5062517;28;46333;-75
2022/07/04 00:19:15;;;;;;;;;1.33;1.00;;;;;18.10;58.80;101652.25;5052041;28;45418;-75
2022/07/04 00:21:40;;;;;;;;;2.67;2.33;;;;;18.15;59.09;101662.41;5041858;28;45475;-76
2022/07/04 00:24:05;;;;;;;;;2.33;2.33;;;;;18.08;59.16;101661.53;5059644;28;45556;-75
2022/07/04 00:26:31;;;;;;;;;4.00;2.67;;;;;18.04;59.83;101655.72;5055102;28;47999;-75
2022/07/04 00:28:56;;;;;;;;;2.00;2.00;;;;;18.02;59.95;101660.47;5040565;28;45348;-76
2022/07/04 00:31:22;;;;;;;;;1.67;1.67;;;;;18.01;60.07;101669.56;5059904;28;45379;-75
2022/07/04 00:33:47;;;;;;;;;2.00;2.00;;;;;17.93;60.71;101662.53;5059543;28;45509;-75
2022/07/04 00:36:12;;;;;;;;;3.00;2.00;;;;;17.92;60.31;101666.22;5059441;28;45382;-75
2022/07/04 00:38:38;;;;;;;;;1.67;1.67;;;;;17.84;60.33;101653.78;5053347;28;45365;-75
2022/07/04 00:41:03;;;;;;;;;2.00;2.00;;;;;17.80;60.75;101652.53;5060013;28;45358;-75
2022/07/04 00:43:29;;;;;;;;;1.00;1.00;;;;;17.84;60.39;101674.47;5041158;28;47022;-75
2022/07/04 00:45:55;;;;;;;;;2.67;1.33;;;;;17.83;60.74;101667.41;5059179;28;45704;-75
2022/07/04 00:48:20;;;;;;;;;1.00;1.00;;;;;17.79;60.44;101665.16;5059170;28;45267;-77
2022/07/04 00:50:47;;;;;;;;;1.33;1.33;;;;;17.79;60.62;101664.31;5059266;28;45308;-75
2022/07/04 00:53:14;;;;;;;;;1.00;1.00;;;;;17.80;60.90;101663.28;5037923;28;47290;-74
2022/07/04 00:55:40;;;;;;;;;2.00;0.00;;;;;17.77;60.50;101653.75;5053932;28;46457;-76
2022/07/04 00:58:07;;;;;;;;;0.00;0.00;;;;;17.84;60.56;101658.34;5037489;28;45361;-75
2022/07/04 01:00:32;;;;;;;;;1.00;1.00;;;;;17.85;60.56;101658.13;5052931;28;45366;-76
2022/07/04 01:02:57;;;;;;;;;0.33;0.33;;;;;17.82;60.62;101661.22;5059182;28;45375;-75
2022/07/04 01:05:23;;;;;;;;;1.00;1.00;;;;;17.82;60.16;101657.69;5059088;28;46168;-75
2022/07/04 01:07:49;;;;;;;;;1.00;0.00;;;;;17.76;60.04;101648.56;5040903;28;45309;-75
2022/07/04 01:10:15;;;;;;;;;0.00;0.00;;;;;17.78;60.19;101665.34;5059126;28;45343;-75
2022/07/04 01:12:40;;;;;;;;;0.00;0.00;;;;;17.77;60.35;101667.19;5058820;28;45244;-75
2022/07/04 01:15:07;;;;;;;;;2.00;2.00;;;;;17.77;61.21;101669.88;5058903;28;45231;-75
2022/07/04 01:17:33;;;;;;;;;0.33;0.33;;;;;17.72;60.67;101669.66;5061534;28;45481;-75
2022/07/04 01:19:58;;;;;;;;;1.00;1.00;;;;;17.63;60.85;101660.09;5059248;28;45482;-75
2022/07/04 01:22:24;;;;;;;;;2.00;0.33;;;;;17.64;60.52;101669.81;5061411;28;45537;-75
2022/07/04 01:24:49;;;;;;;;;0.00;0.00;;;;;17.55;61.04;101666.47;5062077;28;45782;-75
2022/07/04 01:27:15;;;;;;;;;0.00;0.00;;;;;17.50;60.83;101668.91;5062102;28;45399;-74
2022/07/04 01:29:41;;;;;;;;;0.33;0.33;;;;;17.48;61.26;101665.59;5062613;28;45371;-75
2022/07/04 01:32:08;;;;;;;;;0.67;0.67;;;;;17.42;61.23;101661.88;5062075;28;45410;-75
2022/07/04 01:34:34;;;;;;;;;1.00;1.00;;;;;17.41;61.23;101668.25;5062563;28;45274;-75
2022/07/04 01:37:00;;;;;;;;;0.33;0.33;;;;;17.35;61.45;101664.50;5062126;28;45243;-75
2022/07/04 01:39:26;;;;;;;;;0.33;0.33;;;;;17.32;61.50;101655.97;5062328;28;45186;-76
2022/07/04 01:41:52;;;;;;;;;1.00;1.00;;;;;17.27;61.94;101665.47;5062108;28;45396;-75
2022/07/04 01:44:17;;;;;;;;;1.00;1.00;;;;;17.26;61.52;101661.13;5061851;28;45355;-75
2022/07/04 01:46:42;;;;;;;;;2.00;1.00;;;;;17.22;61.70;101664.41;5062105;28;45500;-75
2022/07/04 01:49:08;;;;;;;;;1.00;1.00;;;;;17.18;61.97;101657.78;5062296;28;45348;-75
2022/07/04 01:51:34;;;;;;;;;1.00;1.00;;;;;17.12;62.20;101657.50;5062260;28;45304;-75
2022/07/04 01:53:59;;;;;;;;;0.67;0.67;;;;;17.09;62.14;101651.72;5061770;28;45376;-75
2022/07/04 01:56:24;;;;;;;;;1.67;1.33;;;;;17.04;62.61;101655.78;5062050;28;45358;-75
2022/07/04 01:58:50;;;;;;;;;2.00;2.00;;;;;17.03;62.22;101651.44;5044176;28;45414;-76
2022/07/04 02:01:30;;;;;;;;;2.33;2.33;;;;;16.91;62.64;101640.41;5061860;28;45584;-75
2022/07/04 02:03:57;;;;;;;;;0.00;0.00;;;;;16.92;63.01;101652.78;5053934;28;47502;-76
2022/07/04 02:06:22;;;;;;;;;2.00;2.00;;;;;16.79;63.58;101642.78;5043604;28;45344;-76
2022/07/04 02:13:00;;;;;;;;;4.00;2.67;;;;;16.74;63.61;101669.41;5061959;28;45284;-78
2022/07/04 02:14:17;;;;;;;;;3.33;3.33;;;;;16.72;63.82;101660.69;5061318;28;45892;-75
2022/07/04 02:16:43;;;;;;;;;6.00;3.00;;;;;16.64;64.17;101658.97;5046220;28;46157;-75
2022/07/04 02:19:08;;;;;;;;;3.00;3.00;;;;;16.65;64.39;101662.50;5062054;28;45510;-75
2022/07/04 02:21:34;;;;;;;;;2.00;2.00;;;;;16.66;64.39;101658.78;5061627;28;45568;-75
2022/07/04 02:23:59;;;;;;;;;3.33;1.33;;;;;16.64;64.72;101668.88;5061552;28;46552;-75
2022/07/04 02:26:24;;;;;;;;;2.67;2.67;;;;;16.62;64.61;101676.28;5056886;28;48075;-75
2022/07/04 02:28:51;;;;;;;;;1.00;1.00;;;;;16.60;64.46;101673.78;5041721;28;45438;-75
2022/07/04 02:31:16;;;;;;;;;2.67;2.00;;;;;16.61;64.79;101671.94;5061505;28;45454;-75
2022/07/04 02:33:42;;;;;;;;;3.33;1.67;;;;;16.59;64.56;101665.94;5060825;28;45997;-75
2022/07/04 02:36:07;;;;;;;;;1.00;1.00;;;;;16.52;64.80;101660.50;5061509;28;45328;-75
2022/07/04 02:38:32;;;;;;;;;1.67;1.67;;;;;16.52;65.19;101674.75;5061314;28;45488;-75
2022/07/04 02:40:58;;;;;;;;;2.00;1.33;;;;;16.46;65.27;101669.34;5061097;28;45508;-75
2022/07/04 02:43:23;;;;;;;;;1.33;1.33;;;;;16.46;65.43;101672.00;5052021;28;48155;-75
2022/07/04 02:45:48;;;;;;;;;1.33;1.33;;;;;16.43;65.45;101670.53;5060966;28;45346;-75
2022/07/04 02:48:14;;;;;;;;;3.00;2.67;;;;;16.37;65.38;101661.38;5061237;28;45285;-77
2022/07/04 02:50:39;;;;;;;;;2.00;2.00;;;;;16.39;65.50;101671.94;5061294;28;45261;-75
2022/07/04 02:53:04;;;;;;;;;1.33;1.33;;;;;16.35;65.24;101671.50;5061148;28;45351;-75
2022/07/04 02:55:30;;;;;;;;;4.00;1.33;;;;;16.34;65.51;101671.69;5054068;28;46227;-75
2022/07/04 02:57:55;;;;;;;;;3.00;2.00;;;;;16.34;65.59;101671.69;5042903;28;45257;-76
2022/07/04 03:00:20;;;;;;;;;0.33;0.33;;;;;16.27;65.51;101666.22;5060999;28;45368;-75
2022/07/04 03:02:46;;;;;;;;;2.00;2.00;;;;;16.26;65.74;101670.75;5060736;28;46516;-75
2022/07/04 03:05:11;;;;;;;;;2.00;2.00;;;;;16.22;65.96;101668.66;5061003;28;45443;-75
2022/07/04 03:07:37;;;;;;;;;1.00;1.00;;;;;16.14;66.40;101656.19;5060753;28;45221;-75
2022/07/04 03:10:02;;;;;;;;;1.00;1.00;;;;;16.15;66.42;101671.25;5042715;28;46098;-76
2022/07/04 03:12:27;;;;;;;;;2.00;2.00;;;;;16.18;66.56;101681.63;5060324;28;45337;-75
2022/07/04 03:14:53;;;;;;;;;2.00;2.00;;;;;16.12;66.55;101672.47;5060551;28;45347;-76
2022/07/04 03:17:19;;;;;;;;;1.00;1.00;;;;;16.12;66.55;101675.16;5045494;28;45396;-75
2022/07/04 03:19:45;;;;;;;;;1.33;1.00;;;;;16.14;66.73;101683.03;5042341;28;45969;-75
2022/07/04 03:22:10;;;;;;;;;4.00;3.00;;;;;16.07;66.64;101682.13;5049011;28;47219;-75
2022/07/04 03:24:36;;;;;;;;;2.67;2.67;;;;;16.06;66.97;101681.28;5060475;28;45331;-75
2022/07/04 03:27:01;;;;;;;;;2.67;2.33;;;;;16.02;67.05;101680.00;5060476;28;45437;-75
2022/07/04 03:29:26;;;;;;;;;3.00;3.00;;;;;16.00;67.41;101682.84;5060556;28;45377;-74
2022/07/04 03:31:52;;;;;;;;;4.00;2.00;;;;;15.96;66.94;101678.03;5042299;28;46630;-75
2022/07/04 03:34:17;;;;;;;;;2.00;2.00;;;;;15.97;66.88;101685.91;5060168;28;45433;-75
2022/07/04 03:36:43;;;;;;;;;3.00;2.33;;;;;15.86;67.37;101673.78;5042428;28;45933;-75
2022/07/04 03:39:08;;;;;;;;;2.33;2.33;;;;;15.88;67.58;101687.00;5058387;28;46934;-75
2022/07/04 03:41:33;;;;;;;;;3.00;3.00;;;;;15.84;67.44;101683.03;5060372;28;45847;-75
2022/07/04 03:43:59;;;;;;;;;2.00;2.00;;;;;15.80;67.68;101689.78;5059036;28;45371;-76
2022/07/04 03:46:24;;;;;;;;;2.00;2.00;;;;;15.77;67.46;101690.97;5060421;28;45289;-75
2022/07/04 03:48:50;;;;;;;;;2.67;2.00;;;;;15.72;67.73;101691.56;5060305;28;45244;-75
2022/07/04 03:51:15;;;;;;;;;2.67;2.67;;;;;15.68;67.75;101679.50;5060266;28;45339;-75
2022/07/04 03:53:42;;;;;;;;;3.00;2.00;;;;;15.68;67.74;101687.56;5051888;28;45405;-75
2022/07/04 03:56:08;;;;;;;;;1.67;1.67;;;;;15.67;67.81;101685.06;5060099;28;45425;-75
2022/07/04 03:58:33;;;;;;;;;3.00;3.00;;;;;15.62;68.14;101689.13;5059861;28;45252;-75
2022/07/04 04:01:00;;;;;;;;;3.00;3.00;;;;;15.62;68.20;101686.47;5059553;28;46379;-75
2022/07/04 04:06:09;;;;;;;;;3.67;2.67;;;;;15.58;68.18;101687.00;5059844;28;45372;-75
2022/07/04 04:08:35;;;;;;;;;3.67;3.67;;;;;15.57;68.12;101686.19;5059829;28;45501;-75
2022/07/04 04:11:00;;;;;;;;;3.00;2.33;;;;;15.58;68.37;101692.38;5059651;28;46276;-75
2022/07/04 04:13:25;;;;;;;;;2.00;2.00;;;;;15.52;68.63;101691.25;5059675;28;45355;-74
2022/07/04 04:15:50;;;;;;;;;2.00;2.00;;;;;15.55;68.66;101696.25;5062113;28;45469;-75
2022/07/04 04:18:16;;;;;;;;;2.33;2.33;;;;;15.55;68.85;101700.75;5060302;28;49177;-75
2022/07/04 04:20:41;;;;;;;;;4.33;2.00;;;;;15.54;68.79;101702.63;5059831;28;45342;-75
2022/07/04 04:23:06;;;;;;;;;2.33;2.33;;;;;15.52;69.38;101702.81;5059520;28;45359;-74
2022/07/04 04:25:32;;;;;;;;;2.00;2.00;;;;;15.53;68.86;101699.13;5059995;28;45280;-78
2022/07/04 04:27:57;;;;;;;;;4.00;2.00;;;;;15.52;68.95;101705.50;5059511;28;45380;-75
2022/07/04 04:30:23;;;;;;;;;2.00;2.00;;;;;15.52;69.02;101704.66;5059223;28;46608;-75
2022/07/04 04:32:48;;;;;;;;;3.00;3.00;;;;;15.49;68.71;101705.03;5059530;28;45311;-75
2022/07/04 04:35:14;;;;;;;;;3.67;3.67;;;;;15.47;69.30;101713.25;5059438;28;45283;-75
2022/07/04 04:37:39;;;;;;;;;2.67;2.33;;;;;15.45;69.18;101707.25;5059041;28;45558;-75
2022/07/04 04:40:05;;;;;;;;;6.00;3.00;;;;;15.44;69.40;101705.56;5041289;28;48602;-75
2022/07/04 04:42:30;;;;;;;;;3.00;3.00;;;;;15.44;69.25;101689.50;5059009;28;45375;-75
2022/07/04 04:44:56;;;;;;;;;4.00;2.00;;;;;15.41;69.19;101697.91;5059946;28;45416;-75
2022/07/04 04:47:21;;;;;;;;;3.67;3.67;;;;;15.43;69.35;101695.88;5041170;28;47537;-74
2022/07/04 04:49:47;;;;;;;;;4.67;4.67;;;;;15.43;69.29;101693.19;5059316;28;45268;-75
2022/07/04 04:52:12;;;;;;;;;4.00;2.67;;;;;15.36;69.41;101685.03;5059475;28;45229;-75
2022/07/04 04:54:37;;;;;;;;;4.67;4.67;;;;;15.43;70.11;101703.91;5059211;28;45432;-75
2022/07/04 04:57:03;;;;;;;;;7.00;5.00;;;;;15.47;69.69;101704.38;5058839;28;45378;-74
2022/07/04 04:59:29;;;;;;;;;4.67;4.67;;;;;15.44;69.74;101699.41;5058867;28;45248;-74
2022/07/04 05:01:55;;;;;;;;;5.00;5.00;;;;;15.47;69.54;101691.81;5058879;28;45331;-75
2022/07/04 05:04:20;;;;;;;;;5.33;5.33;;;;;15.49;69.63;101695.16;5059175;28;45374;-74
2022/07/04 05:06:45;;;;;;;;;8.67;8.67;;;;;15.52;69.91;101702.81;5053536;28;45435;-75
2022/07/04 05:09:11;;;;;;;;;6.00;6.00;;;;;15.52;69.72;101693.94;5046478;28;45460;-75
2022/07/04 05:11:36;;;;;;;;;5.00;5.00;;;;;15.57;70.19;101696.06;5040620;28;45328;-74
2022/07/04 05:14:02;;;;;;;;;8.00;5.67;;;;;15.60;70.24;101703.75;5059058;28;45485;-74
2022/07/04 05:16:27;;;;;;;;;6.00;5.00;;;;;15.61;70.29;101705.41;5065844;28;45237;-74
2022/07/04 05:18:52;;;;;;;;;7.67;6.33;;;;;15.64;70.03;101707.72;5042727;28;48258;-74
2022/07/04 05:21:18;;;;;;;;;6.00;6.00;;;;;15.71;70.11;101713.19;5041183;28;45832;-75
2022/07/04 05:23:43;;;;;;;;;6.00;5.00;;;;;15.74;70.03;101718.13;5051279;28;45280;-74
2022/07/04 05:26:08;;;;;;;;;7.33;4.67;;;;;15.78;69.96;101712.22;5042463;28;45616;-74
2022/07/04 05:28:34;;;;;;;;;4.67;4.67;;;;;15.82;70.03;101711.84;5034445;28;46346;-75
2022/07/04 05:30:59;;;;;;;;;6.00;6.00;;;;;15.89;69.91;101718.13;5052949;28;45221;-74
2022/07/04 05:33:24;;;;;;;;;5.00;5.00;;;;;15.92;69.77;101707.03;5052369;28;45549;-75
2022/07/04 05:35:50;;;;;;;;;6.00;5.00;;;;;15.99;69.89;101708.00;5057427;28;45264;-75
2022/07/04 05:38:15;;;;;;;;;5.00;5.00;;;;;16.10;69.84;101716.59;5022172;28;46952;-78
2022/07/04 05:40:40;;;;;;;;;6.67;6.67;;;;;16.17;69.59;101714.81;5041459;28;45406;-76
2022/07/04 05:43:06;;;;;;;;;8.33;8.00;;;;;16.22;69.63;101717.75;5046842;28;45288;-75
2022/07/04 05:45:31;;;;;;;;;6.33;6.33;;;;;16.21;69.63;101704.53;5039312;28;47432;-75
2022/07/04 05:47:56;;;;;;;;;5.00;5.00;;;;;16.33;69.79;101719.13;5040350;28;47208;-75
2022/07/04 05:50:22;;;;;;;;;6.00;6.00;;;;;16.43;69.89;101720.69;5058509;28;45271;-75
2022/07/04 05:52:47;;;;;;;;;5.00;5.00;;;;;16.50;69.57;101719.75;5039924;28;45400;-74
2022/07/04 05:55:13;;;;;;;;;6.00;4.67;;;;;16.53;69.39;101713.97;5056993;28;45438;-75
2022/07/04 05:57:38;;;;;;;;;3.67;3.00;;;;;16.65;69.74;101708.94;5056987;28;46286;-75
2022/07/04 06:00:05;;;;;;;;;3.00;3.00;;;;;16.73;69.52;101709.84;5057182;28;45489;-74
2022/07/04 06:02:30;;;;;;;;;3.67;3.67;;;;;16.84;69.14;101720.06;5054676;28;45446;-74
2022/07/04 06:04:56;;;;;;;;;5.33;5.00;;;;;16.95;68.37;101723.25;5042382;28;45414;-76
2022/07/04 06:07:21;;;;;;;;;5.00;3.67;;;;;17.01;68.18;101715.25;5035260;28;46951;-76
2022/07/04 06:09:46;;;;;;;;;5.00;2.00;;;;;17.09;67.65;101708.13;5051267;28;45559;-75
2022/07/04 06:12:12;;;;;;;;;1.00;1.00;;;;;17.21;67.00;101717.28;5035932;28;45811;-75
2022/07/04 06:14:37;;;;;;;;;2.33;2.33;;;;;17.30;67.04;101723.34;5042642;28;45485;-74
2022/07/04 06:17:03;;;;;;;;;4.67;2.33;;;;;17.37;67.04;101728.78;5025611;28;47261;-74
2022/07/04 06:19:28;;;;;;;;;2.00;1.00;;;;;17.39;67.29;101714.13;5031910;28;45356;-74
2022/07/04 06:21:54;;;;;;;;;2.00;2.00;;;;;17.49;67.13;101719.16;5050190;28;45292;-75
2022/07/04 06:24:19;;;;;;;;;1.00;1.00;;;;;17.60;66.70;101738.44;5042935;28;46803;-75
2022/07/04 06:26:44;;;;;;;;;3.00;2.00;;;;;17.64;66.85;101728.97;5043146;28;47192;-74
2022/07/04 06:29:10;;;;;;;;;3.00;3.00;;;;;17.70;66.63;101727.34;5061865;28;45350;-74
2022/07/04 06:31:35;;;;;;;;;4.00;1.33;;;;;17.76;66.64;101730.06;5043513;28;45294;-74
2022/07/04 06:36:45;;;;;;;;;6.00;2.33;;;;;17.89;65.15;101725.78;5061130;28;45902;-74
2022/07/04 06:39:10;;;;;;;;;3.33;3.33;;;;;17.95;65.21;101721.44;5059066;28;45237;-75
2022/07/04 06:41:36;;;;;;;;;7.00;5.33;;;;;18.01;65.20;101715.28;5043294;28;45293;-74
2022/07/04 06:44:01;;;;;;;;;8.00;7.00;;;;;18.10;65.78;101716.81;5061247;28;45485;-74
2022/07/04 06:46:26;;;;;;;;;5.33;5.33;;;;;18.18;65.51;101715.81;5060499;28;45427;-75
2022/07/04 06:48:52;;;;;;;;;4.67;4.67;;;;;18.22;65.71;101708.97;5051753;28;45390;-75
2022/07/04 06:51:17;;;;;;;;;5.33;4.33;;;;;18.30;65.61;101716.03;5061487;28;45220;-74
2022/07/04 06:53:42;;;;;;;;;4.00;3.00;;;;;18.37;65.24;101716.88;5061093;28;45488;-74
2022/07/04 06:56:08;;;;;;;;;3.00;3.00;;;;;18.41;65.03;101722.72;5060936;28;46355;-74
2022/07/04 06:58:33;;;;;;;;;1.33;1.33;;;;;18.52;64.59;101734.72;5060753;28;45262;-75
2022/07/04 07:00:59;;;;;;;;;1.00;1.00;;;;;18.53;64.87;101731.81;5060671;28;45641;-74
2022/07/04 07:03:24;;;;;;;;;2.67;2.00;;;;;18.60;64.38;101731.00;5060897;28;45249;-74
2022/07/04 07:05:49;;;;;;;;;3.00;2.00;;;;;18.69;64.27;101735.19;5060988;28;45455;-74
2022/07/04 07:08:15;;;;;;;;;2.00;2.00;;;;;18.76;64.62;101735.19;5060731;28;45332;-75
2022/07/04 07:10:40;;;;;;;;;2.00;2.00;;;;;18.79;64.65;101738.31;5059572;28;45291;-74
2022/07/04 07:13:05;;;;;;;;;1.00;1.00;;;;;18.74;64.03;101732.69;5047536;28;47046;-74
2022/07/04 07:15:35;;;;;;;;;1.33;1.00;;;;;18.81;64.11;101735.41;5057912;28;45512;-74
2022/07/04 07:18:00;;;;;;;;;2.67;2.67;;;;;18.90;64.36;101744.13;5056544;28;45648;-75
2022/07/04 07:20:25;;;;;;;;;4.00;4.00;;;;;18.99;63.45;101733.97;5059224;28;45359;-75
2022/07/04 07:22:51;;;;;;;;;2.00;1.00;;;;;19.06;63.46;101737.47;5059845;28;45353;-74
2022/07/04 07:25:16;;;;;;;;;3.67;3.67;;;;;19.12;63.10;101743.94;5059845;28;45366;-75
2022/07/04 07:27:41;;;;;;;;;2.00;2.00;;;;;19.19;62.79;101736.69;5060567;28;45287;-75
2022/07/04 07:30:08;;;;;;;;;3.00;2.67;;;;;19.24;62.60;101734.19;5054379;28;45344;-75
2022/07/04 07:32:34;;;;;;;;;2.67;2.67;;;;;19.34;62.67;101741.88;5060485;28;45367;-75
2022/07/04 07:34:59;;;;;;;;;2.00;1.00;;;;;19.40;62.25;101735.63;5060379;28;45661;-75
2022/07/04 07:37:26;;;;;;;;;2.33;2.33;;;;;19.47;61.73;101740.19;5059861;28;45355;-75
2022/07/04 07:39:51;;;;;;;;;1.00;1.00;;;;;19.55;60.62;101739.97;5052561;28;45498;-76
2022/07/04 07:42:17;;;;;;;;;3.00;2.00;;;;;19.55;60.49;101732.69;5059425;28;45355;-76
2022/07/04 07:44:45;;;;;;;;;2.00;2.00;;;;;19.65;60.09;101742.22;5059676;28;45488;-75
2022/07/04 07:47:12;;;;;;;;;3.00;1.00;;;;;19.71;60.39;101735.16;5054746;28;45383;-75
2022/07/04 07:49:37;;;;;;;;;2.33;2.33;;;;;19.75;59.43;101736.41;5044679;28;45695;-75
2022/07/04 07:52:03;;;;;;;;;3.33;2.00;;;;;19.76;60.16;101732.66;5059648;28;47224;-75
2022/07/04 07:54:28;;;;;;;;;3.00;3.00;;;;;19.76;59.36;101722.72;5058679;28;45351;-75
2022/07/04 07:56:53;;;;;;;;;3.00;2.00;;;;;19.83;58.50;101728.06;5059268;28;45429;-75
2022/07/04 07:59:19;;;;;;;;;1.00;1.00;;;;;19.83;58.00;101719.16;5059756;28;46795;-75
2022/07/04 08:01:44;;;;;;;;;2.00;1.67;;;;;19.87;57.74;101725.78;5059571;28;45346;-76
2022/07/04 08:06:53;;;;;;;;;2.00;2.00;;;;;20.02;57.93;101715.56;5059370;28;45469;-76
2022/07/04 08:09:18;;;;;;;;;2.33;2.00;;;;;20.16;57.94;101718.22;5058629;28;45331;-75
2022/07/04 08:11:44;;;;;;;;;2.00;2.00;;;;;20.26;58.04;101726.69;5044431;28;46185;-77
2022/07/04 08:14:09;;;;;;;;;5.00;4.00;;;;;20.31;58.11;101712.53;5041086;28;47165;-75
2022/07/04 08:16:36;;;;;;;;;1.33;1.33;;;;;20.43;57.33;101720.78;5045007;28;45586;-75
2022/07/04 08:19:02;;;;;;;;;2.00;2.00;;;;;20.49;57.82;101714.50;5041500;28;45472;-74
2022/07/04 08:21:28;;;;;;;;;1.00;1.00;;;;;20.57;56.44;101721.53;5059315;28;45435;-75
2022/07/04 08:23:53;;;;;;;;;1.00;1.00;;;;;20.60;56.22;101706.75;5058387;28;46264;-75
2022/07/04 08:26:19;;;;;;;;;2.67;2.67;;;;;20.69;56.30;101710.84;5059157;28;45318;-75
2022/07/04 08:28:44;;;;;;;;;2.33;2.33;;;;;20.71;55.44;101710.63;5058170;28;45328;-75
2022/07/04 08:31:10;;;;;;;;;1.00;1.00;;;;;20.71;54.37;101716.84;5058688;28;45467;-74
2022/07/04 08:33:35;;;;;;;;;1.33;1.33;;;;;20.73;54.24;101706.66;5058531;28;45331;-74
2022/07/04 08:36:01;;;;;;;;;1.00;1.00;;;;;20.85;54.81;101711.34;5030976;28;45335;-75
2022/07/04 08:38:27;;;;;;;;;2.00;2.00;;;;;20.90;54.12;101701.59;5051924;28;45335;-75
2022/07/04 08:40:57;;;;;;;;;3.00;2.00;;;;;20.93;54.47;101689.50;5058809;28;46617;-75
2022/07/04 08:43:24;;;;;;;;;1.00;1.00;;;;;21.04;52.40;101704.19;5058725;28;45460;-75
2022/07/04 08:45:53;;;;;;;;;2.00;2.00;;;;;21.04;52.97;101688.78;5058992;28;45366;-76
2022/07/04 08:48:25;;;;;;;;;2.00;2.00;;;;;21.10;52.54;101692.44;5060417;28;45426;-78
2022/07/04 08:50:56;;;;;;;;;2.67;2.67;;;;;21.11;52.70;101688.72;5044587;28;45363;-75
2022/07/04 08:53:24;;;;;;;;;4.67;2.00;;;;;21.20;52.84;101686.56;5032293;28;47129;-75
2022/07/04 08:58:52;;;;;;;;;3.00;2.00;;;;;21.34;51.97;101689.94;5017503;28;45504;-75
2022/07/04 09:01:18;;;;;;;;;3.00;2.00;;;;;21.37;52.04;101675.97;5045827;28;45387;-77
2022/07/04 09:03:45;;;;;;;;;2.67;2.67;;;;;21.49;52.80;101680.66;5046241;28;45418;-76
2022/07/04 09:06:11;;;;;;;;;2.67;2.00;;;;;21.53;52.30;101684.56;5059136;28;45280;-78
2022/07/04 09:08:38;;;;;;;;;2.00;1.00;;;;;21.56;50.48;101679.53;5044808;28;45419;-75
2022/07/04 09:11:04;;;;;;;;;2.00;2.00;;;;;21.59;50.63;101672.00;5034203;28;46257;-75
2022/07/04 09:13:30;;;;;;;;;2.00;2.00;;;;;21.69;50.69;101675.00;5030237;28;47513;-76
2022/07/04 09:15:56;;;;;;;;;2.00;2.00;;;;;21.73;50.30;101676.19;5060919;28;45430;-76
2022/07/04 09:18:23;;;;;;;;;3.00;3.00;;;;;21.75;50.69;101668.72;5061649;28;45383;-75
2022/07/04 09:20:48;;;;;;;;;1.00;1.00;;;;;21.83;50.92;101667.59;5058215;28;45332;-76
2022/07/04 09:23:20;;;;;;;;;2.33;2.33;;;;;21.94;51.23;101671.41;5039584;28;47143;-76
2022/07/04 09:25:46;;;;;;;;;1.67;1.00;;;;;22.05;50.97;101659.78;5039103;28;45486;-75
2022/07/04 09:28:11;;;;;;;;;1.00;1.00;;;;;22.13;50.21;101657.81;5037808;28;45353;-76
2022/07/04 09:30:48;;;;;;;;;1.00;1.00;;;;;22.22;49.29;101664.56;5019969;28;46231;-75
2022/07/04 09:33:17;;;;;;;;;3.33;2.33;;;;;22.27;49.01;101659.25;5041227;28;45406;-76
2022/07/04 09:35:42;;;;;;;;;2.00;2.00;;;;;22.30;49.58;101652.59;5020542;28;45632;-76
2022/07/04 09:38:11;;;;;;;;;2.00;2.00;;;;;22.43;48.24;101662.38;5043274;28;45776;-75
2022/07/04 09:43:23;;;;;;;;;1.00;1.00;;;;;22.55;47.22;101665.94;5041238;28;45675;-75
2022/07/04 09:45:56;;;;;;;;;1.67;1.67;;;;;22.61;47.65;101668.78;5041700;28;45230;-75
2022/07/04 09:48:23;;;;;;;;;3.00;2.00;;;;;22.67;47.57;101666.00;5041670;28;45269;-75
2022/07/04 09:50:49;;;;;;;;;1.00;1.00;;;;;22.75;46.61;101666.72;5041884;28;45464;-75
2022/07/04 09:53:14;;;;;;;;;1.00;1.00;;;;;22.85;45.46;101666.94;5049688;28;45209;-74
2022/07/04 09:55:39;;;;;;;;;0.67;0.67;;;;;22.90;45.67;101666.25;5039708;28;45225;-74
2022/07/04 09:58:10;;;;;;;;;1.00;1.00;;;;;22.97;44.78;101658.81;5041531;28;45221;-74
2022/07/04 10:00:43;;;;;;;;;1.00;1.00;;;;;22.99;45.01;101661.28;5041285;28;45465;-74
2022/07/04 10:03:22;;;;;;;;;1.00;1.00;;;;;23.11;45.33;101672.13;5040094;28;47319;-74
2022/07/04 10:06:00;;;;;;;;;2.00;2.00;;;;;23.18;45.23;101672.81;5041349;28;45300;-74
2022/07/04 10:08:26;;;;;;;;;2.00;2.00;;;;;23.25;45.13;101656.44;5041102;28;45311;-74
2022/07/04 10:10:57;;;;;;;;;2.00;2.00;;;;;23.36;44.40;101658.31;5052261;28;45168;-74
2022/07/04 10:13:22;;;;;;;;;1.33;1.33;;;;;23.51;44.93;101665.16;5057164;28;48036;-74
2022/07/04 10:15:49;;;;;;;;;3.33;2.00;;;;;23.65;44.83;101661.13;5063473;28;45455;-74
2022/07/04 10:18:18;;;;;;;;;1.00;1.00;;;;;23.80;44.65;101657.84;5048300;28;45347;-74
2022/07/04 10:20:44;;;;;;;;;1.33;1.00;;;;;23.91;44.12;101648.03;5061523;28;45551;-72
2022/07/04 10:23:10;;;;;;;;;1.00;1.00;;;;;24.06;44.09;101652.91;5061362;28;45363;-74
2022/07/04 10:25:36;;;;;;;;;2.00;2.00;;;;;24.19;43.51;101651.00;5039940;28;45758;-73
2022/07/04 10:28:01;;;;;;;;;2.67;2.67;;;;;24.27;43.61;101647.06;5053179;28;45391;-74
2022/07/04 10:30:33;;;;;;;;;2.00;2.00;;;;;24.38;42.78;101654.31;5061353;28;45606;-74
2022/07/04 10:33:01;;;;;;;;;4.00;2.00;;;;;24.40;40.95;101660.34;5061368;28;48870;-74
2022/07/04 10:36:22;;;;;;;;;2.00;2.00;;;;;24.59;42.06;101654.66;5061220;28;45399;-74
2022/07/04 10:38:54;;;;;;;;;2.00;2.00;;;;;24.79;42.50;101650.59;4992823;28;45619;-75
2022/07/04 10:41:23;;;;;;;;;2.00;2.00;;;;;24.97;40.58;101646.81;4982177;28;46060;-74
2022/07/04 10:43:48;;;;;;;;;1.00;1.00;;;;;25.12;39.96;101656.25;5031166;28;46055;-74
2022/07/04 10:46:13;;;;;;;;;1.33;1.33;;;;;25.26;41.38;101652.09;5061280;28;45446;-74
2022/07/04 10:48:49;;;;;;;;;1.00;1.00;;;;;25.41;39.68;101645.22;5043596;28;45519;-75
2022/07/04 10:51:15;;;;;;;;;1.67;1.00;;;;;25.61;40.33;101636.50;5051095;28;45415;-74
2022/07/04 10:54:04;;;;;;;;;2.00;2.00;;;;;25.86;39.26;101646.03;5045461;28;45553;-74
2022/07/04 10:56:30;;;;;;;;;1.00;1.00;;;;;25.97;39.48;101644.22;5042255;28;45337;-74
2022/07/04 10:58:57;;;;;;;;;2.00;2.00;;;;;26.13;38.33;101647.09;5041586;28;47329;-74
2022/07/04 11:01:23;;;;;;;;;1.00;1.00;;;;;26.31;38.87;101637.75;5027449;28;47489;-74
2022/07/04 11:03:52;;;;;;;;;3.00;3.00;;;;;26.49;38.36;101636.56;5044054;28;45459;-74
2022/07/04 11:06:33;;;;;;;;;5.00;4.00;;;;;26.62;38.08;101638.00;5024043;28;45365;-73
2022/07/04 11:09:18;;;;;;;;;3.67;3.67;;;;;26.63;35.37;101628.72;5038848;28;45368;-74
2022/07/04 11:11:52;;;;;;;;;6.67;5.00;;;;;26.83;37.41;101638.97;5041882;28;45394;-74
2022/07/04 11:14:36;;;;;;;;;9.67;8.67;;;;;27.05;37.86;101632.56;5058367;28;46341;-74
2022/07/04 11:17:09;;;;;;;;;1.00;1.00;;;;;27.16;37.45;101627.97;5055127;28;45372;-73
2022/07/04 11:19:35;;;;;;;;;1.33;1.33;;;;;27.35;37.41;101627.50;5060116;28;45599;-73
2022/07/04 11:22:00;;;;;;;;;2.00;1.00;;;;;27.51;37.64;101639.31;5041156;28;45810;-73
2022/07/04 11:24:27;;;;;;;;;1.00;1.00;;;;;27.63;36.69;101632.78;5057476;28;46103;-73
2022/07/04 11:26:52;;;;;;;;;0.00;0.00;;;;;27.80;35.69;101638.84;5041994;28;45285;-73
2022/07/04 11:29:18;;;;;;;;;2.00;2.00;;;;;27.88;35.79;101639.41;5051477;28;45693;-73
2022/07/04 11:31:47;;;;;;;;;1.00;1.00;;;;;27.98;34.63;101637.50;5059987;28;45533;-73
2022/07/04 11:34:13;;;;;;;;;1.00;0.67;;;;;27.98;34.58;101636.69;5045045;28;45515;-72
2022/07/04 11:36:40;;;;;;;;;2.00;2.00;;;;;28.15;35.25;101633.72;5058873;28;45474;-72
2022/07/04 11:39:08;;;;;;;;;1.00;1.00;;;;;28.25;35.30;101626.63;5042524;28;45292;-73